Norwoodville, Iowa
Current Conditions -  °F | °C
As of 6:15 PM on Friday 21 Nov 2014 (Local Time) from KIKV Reporting Station
Overcast Overcast  
Wind Chill: 28°   Ceiling: 1700
Heat Index: 37°   Visibility: 10mi
Dew Point: 25°   Wind: 16mph
Humidity: 60%   Direction: 160°SSE
Pressure: 30.1"   Gusts: NA
Location:  41.6142°N, 93.5543°W
Report Text: KIKV 220015Z AUTO 16014KT 10SM OVC017 03/M04 A3010 RMK AO2
Loading
Personal Weather Stations






























Interactive Weather Map New forecast layout! Learn more

10-Day Weather Forecast

Advertisements
Track Severe Weather on mobile